sensor_id;sensor_type;location;lat;lon;timestamp;P1;durP1;ratioP1;P2;durP2;ratioP2
68523;SDS011;55524;51.380;13.372;2024-03-02T00:02:25;52.03;;;23.55;;
68523;SDS011;55524;51.380;13.372;2024-03-02T00:05:12;46.88;;;22.42;;
68523;SDS011;55524;51.380;13.372;2024-03-02T00:11:02;49.17;;;22.85;;
68523;SDS011;55524;51.380;13.372;2024-03-02T00:13:29;50.63;;;23.67;;
68523;SDS011;55524;51.380;13.372;2024-03-02T00:16:04;48.58;;;22.80;;
68523;SDS011;55524;51.380;13.372;2024-03-02T00:18:31;54.20;;;23.08;;
68523;SDS011;55524;51.380;13.372;2024-03-02T00:21:01;46.58;;;22.75;;
68523;SDS011;55524;51.380;13.372;2024-03-02T00:23:34;49.33;;;23.63;;
68523;SDS011;55524;51.380;13.372;2024-03-02T00:26:02;58.25;;;25.20;;
68523;SDS011;55524;51.380;13.372;2024-03-02T00:28:33;55.13;;;24.48;;
68523;SDS011;55524;51.380;13.372;2024-03-02T00:33:52;52.92;;;24.05;;
68523;SDS011;55524;51.380;13.372;2024-03-02T00:36:24;61.28;;;24.90;;
68523;SDS011;55524;51.380;13.372;2024-03-02T00:38:54;55.67;;;24.50;;
68523;SDS011;55524;51.380;13.372;2024-03-02T00:41:42;61.85;;;24.38;;
68523;SDS011;55524;51.380;13.372;2024-03-02T00:44:28;53.70;;;23.25;;
68523;SDS011;55524;51.380;13.372;2024-03-02T00:47:00;51.35;;;23.45;;
68523;SDS011;55524;51.380;13.372;2024-03-02T00:49:27;51.60;;;23.10;;
68523;SDS011;55524;51.380;13.372;2024-03-02T00:51:54;53.97;;;23.17;;
68523;SDS011;55524;51.380;13.372;2024-03-02T00:54:27;50.77;;;23.43;;
68523;SDS011;55524;51.380;13.372;2024-03-02T00:56:55;49.70;;;23.38;;
68523;SDS011;55524;51.380;13.372;2024-03-02T00:59:41;54.90;;;24.02;;
68523;SDS011;55524;51.380;13.372;2024-03-02T01:02:32;59.17;;;25.00;;
68523;SDS011;55524;51.380;13.372;2024-03-02T01:05:09;55.15;;;24.23;;
68523;SDS011;55524;51.380;13.372;2024-03-02T01:07:37;56.22;;;25.75;;
68523;SDS011;55524;51.380;13.372;2024-03-02T01:10:24;57.60;;;23.52;;
68523;SDS011;55524;51.380;13.372;2024-03-02T01:12:51;60.85;;;25.48;;
68523;SDS011;55524;51.380;13.372;2024-03-02T01:15:37;61.08;;;25.48;;
68523;SDS011;55524;51.380;13.372;2024-03-02T01:18:07;66.55;;;26.42;;
68523;SDS011;55524;51.380;13.372;2024-03-02T01:20:53;48.80;;;23.90;;
68523;SDS011;55524;51.380;13.372;2024-03-02T01:23:40;56.15;;;25.00;;
68523;SDS011;55524;51.380;13.372;2024-03-02T01:26:18;53.42;;;23.63;;
68523;SDS011;55524;51.380;13.372;2024-03-02T01:28:45;59.10;;;26.20;;
68523;SDS011;55524;51.380;13.372;2024-03-02T01:31:11;61.80;;;25.35;;
68523;SDS011;55524;51.380;13.372;2024-03-02T01:33:58;56.92;;;24.25;;
68523;SDS011;55524;51.380;13.372;2024-03-02T01:36:24;58.38;;;25.25;;
68523;SDS011;55524;51.380;13.372;2024-03-02T01:38:53;58.53;;;25.42;;
68523;SDS011;55524;51.380;13.372;2024-03-02T01:41:19;60.35;;;24.73;;
68523;SDS011;55524;51.380;13.372;2024-03-02T01:43:51;64.72;;;25.50;;
68523;SDS011;55524;51.380;13.372;2024-03-02T01:46:26;56.47;;;23.67;;
68523;SDS011;55524;51.380;13.372;2024-03-02T01:48:53;57.47;;;24.80;;
68523;SDS011;55524;51.380;13.372;2024-03-02T01:51:39;52.67;;;24.00;;
68523;SDS011;55524;51.380;13.372;2024-03-02T01:54:11;57.25;;;24.80;;
68523;SDS011;55524;51.380;13.372;2024-03-02T01:56:46;57.42;;;24.60;;
68523;SDS011;55524;51.380;13.372;2024-03-02T01:59:12;53.22;;;23.17;;
68523;SDS011;55524;51.380;13.372;2024-03-02T02:01:39;53.88;;;23.33;;
68523;SDS011;55524;51.380;13.372;2024-03-02T02:04:25;58.42;;;24.17;;
68523;SDS011;55524;51.380;13.372;2024-03-02T02:06:55;52.88;;;24.92;;
68523;SDS011;55524;51.380;13.372;2024-03-02T02:09:31;52.53;;;23.58;;
68523;SDS011;55524;51.380;13.372;2024-03-02T02:12:07;54.42;;;22.83;;
68523;SDS011;55524;51.380;13.372;2024-03-02T02:14:36;57.15;;;25.92;;
68523;SDS011;55524;51.380;13.372;2024-03-02T02:17:23;56.35;;;24.80;;
68523;SDS011;55524;51.380;13.372;2024-03-02T02:19:49;56.10;;;24.27;;
68523;SDS011;55524;51.380;13.372;2024-03-02T02:22:15;54.05;;;24.50;;
68523;SDS011;55524;51.380;13.372;2024-03-02T02:24:45;55.55;;;24.58;;
68523;SDS011;55524;51.380;13.372;2024-03-02T02:27:12;54.00;;;24.48;;
68523;SDS011;55524;51.380;13.372;2024-03-02T02:29:58;52.67;;;22.98;;
68523;SDS011;55524;51.380;13.372;2024-03-02T02:32:34;50.03;;;23.38;;
68523;SDS011;55524;51.380;13.372;2024-03-02T02:35:00;56.20;;;23.75;;
68523;SDS011;55524;51.380;13.372;2024-03-02T02:37:26;53.63;;;24.58;;
68523;SDS011;55524;51.380;13.372;2024-03-02T02:39:52;51.88;;;23.48;;
68523;SDS011;55524;51.380;13.372;2024-03-02T02:42:24;52.78;;;23.35;;
68523;SDS011;55524;51.380;13.372;2024-03-02T02:44:51;53.08;;;24.52;;
68523;SDS011;55524;51.380;13.372;2024-03-02T02:47:17;56.80;;;24.40;;
68523;SDS011;55524;51.380;13.372;2024-03-02T02:49:43;52.00;;;22.80;;
68523;SDS011;55524;51.380;13.372;2024-03-02T02:52:12;53.50;;;23.60;;
68523;SDS011;55524;51.380;13.372;2024-03-02T02:55:00;55.83;;;23.65;;
68523;SDS011;55524;51.380;13.372;2024-03-02T02:57:31;56.53;;;25.88;;
68523;SDS011;55524;51.380;13.372;2024-03-02T03:00:03;52.05;;;24.85;;
68523;SDS011;55524;51.380;13.372;2024-03-02T03:02:49;60.78;;;24.85;;
68523;SDS011;55524;51.380;13.372;2024-03-02T03:05:15;59.33;;;25.17;;
68523;SDS011;55524;51.380;13.372;2024-03-02T03:07:51;61.38;;;25.20;;
68523;SDS011;55524;51.380;13.372;2024-03-02T03:10:37;59.67;;;24.63;;
68523;SDS011;55524;51.380;13.372;2024-03-02T03:13:06;56.50;;;26.70;;
68523;SDS011;55524;51.380;13.372;2024-03-02T03:15:34;56.33;;;24.30;;
68523;SDS011;55524;51.380;13.372;2024-03-02T03:18:04;56.10;;;24.27;;
68523;SDS011;55524;51.380;13.372;2024-03-02T03:20:39;58.13;;;23.20;;
68523;SDS011;55524;51.380;13.372;2024-03-02T03:23:15;56.25;;;23.70;;
68523;SDS011;55524;51.380;13.372;2024-03-02T03:25:45;55.92;;;23.92;;
68523;SDS011;55524;51.380;13.372;2024-03-02T03:28:12;60.95;;;25.42;;
68523;SDS011;55524;51.380;13.372;2024-03-02T03:30:41;54.17;;;24.17;;
68523;SDS011;55524;51.380;13.372;2024-03-02T03:33:30;56.17;;;25.05;;
68523;SDS011;55524;51.380;13.372;2024-03-02T03:35:56;59.80;;;24.77;;
68523;SDS011;55524;51.380;13.372;2024-03-02T03:38:43;58.30;;;23.92;;
68523;SDS011;55524;51.380;13.372;2024-03-02T03:41:13;58.55;;;26.08;;
68523;SDS011;55524;51.380;13.372;2024-03-02T03:43:42;56.90;;;25.05;;
68523;SDS011;55524;51.380;13.372;2024-03-02T03:46:11;59.92;;;25.83;;
68523;SDS011;55524;51.380;13.372;2024-03-02T03:48:58;55.88;;;23.67;;
68523;SDS011;55524;51.380;13.372;2024-03-02T03:51:28;61.72;;;24.48;;
68523;SDS011;55524;51.380;13.372;2024-03-02T03:53:55;58.35;;;23.92;;
68523;SDS011;55524;51.380;13.372;2024-03-02T03:56:21;58.40;;;25.52;;
68523;SDS011;55524;51.380;13.372;2024-03-02T03:58:48;57.72;;;25.48;;
68523;SDS011;55524;51.380;13.372;2024-03-02T04:01:23;55.53;;;24.02;;
68523;SDS011;55524;51.380;13.372;2024-03-02T04:03:49;56.20;;;24.33;;
68523;SDS011;55524;51.380;13.372;2024-03-02T04:06:15;56.17;;;24.05;;
68523;SDS011;55524;51.380;13.372;2024-03-02T04:08:55;63.03;;;26.13;;
68523;SDS011;55524;51.380;13.372;2024-03-02T04:11:21;57.05;;;24.33;;
68523;SDS011;55524;51.380;13.372;2024-03-02T04:13:47;50.70;;;23.13;;
68523;SDS011;55524;51.380;13.372;2024-03-02T04:16:17;56.47;;;23.85;;
68523;SDS011;55524;51.380;13.372;2024-03-02T04:18:52;53.63;;;22.83;;
68523;SDS011;55524;51.380;13.372;2024-03-02T04:21:19;51.45;;;21.60;;
68523;SDS011;55524;51.380;13.372;2024-03-02T04:23:54;49.83;;;21.65;;
68523;SDS011;55524;51.380;13.372;2024-03-02T04:26:24;53.38;;;23.50;;
68523;SDS011;55524;51.380;13.372;2024-03-02T04:29:11;54.13;;;24.02;;
68523;SDS011;55524;51.380;13.372;2024-03-02T04:31:37;56.55;;;24.85;;
68523;SDS011;55524;51.380;13.372;2024-03-02T04:34:24;56.85;;;24.85;;
68523;SDS011;55524;51.380;13.372;2024-03-02T04:37:13;58.53;;;24.65;;
68523;SDS011;55524;51.380;13.372;2024-03-02T04:39:39;57.08;;;25.42;;
68523;SDS011;55524;51.380;13.372;2024-03-02T04:42:08;54.83;;;25.30;;
68523;SDS011;55524;51.380;13.372;2024-03-02T04:44:43;54.78;;;23.92;;
68523;SDS011;55524;51.380;13.372;2024-03-02T04:47:18;54.47;;;23.65;;
68523;SDS011;55524;51.380;13.372;2024-03-02T04:49:45;53.55;;;23.27;;
68523;SDS011;55524;51.380;13.372;2024-03-02T04:52:11;54.88;;;24.92;;
68523;SDS011;55524;51.380;13.372;2024-03-02T04:54:40;53.00;;;23.67;;
68523;SDS011;55524;51.380;13.372;2024-03-02T04:57:51;57.08;;;24.70;;
68523;SDS011;55524;51.380;13.372;2024-03-02T05:00:19;50.20;;;23.17;;
68523;SDS011;55524;51.380;13.372;2024-03-02T05:03:07;49.85;;;22.55;;
68523;SDS011;55524;51.380;13.372;2024-03-02T05:05:42;51.15;;;23.48;;
68523;SDS011;55524;51.380;13.372;2024-03-02T05:08:12;58.10;;;22.98;;
68523;SDS011;55524;51.380;13.372;2024-03-02T05:10:42;49.17;;;22.70;;
68523;SDS011;55524;51.380;13.372;2024-03-02T05:13:11;53.22;;;23.85;;
68523;SDS011;55524;51.380;13.372;2024-03-02T05:15:37;50.03;;;21.83;;
68523;SDS011;55524;51.380;13.372;2024-03-02T05:20:35;56.05;;;21.48;;
68523;SDS011;55524;51.380;13.372;2024-03-02T05:23:01;56.22;;;23.05;;
68523;SDS011;55524;51.380;13.372;2024-03-02T05:25:33;49.80;;;22.75;;
68523;SDS011;55524;51.380;13.372;2024-03-02T05:28:00;48.50;;;22.23;;
68523;SDS011;55524;51.380;13.372;2024-03-02T05:30:35;56.40;;;23.58;;
68523;SDS011;55524;51.380;13.372;2024-03-02T05:33:04;55.30;;;23.30;;
68523;SDS011;55524;51.380;13.372;2024-03-02T05:35:31;50.80;;;23.02;;
68523;SDS011;55524;51.380;13.372;2024-03-02T05:38:06;52.80;;;22.88;;
68523;SDS011;55524;51.380;13.372;2024-03-02T05:40:35;51.85;;;22.30;;
68523;SDS011;55524;51.380;13.372;2024-03-02T05:43:04;52.35;;;22.15;;
68523;SDS011;55524;51.380;13.372;2024-03-02T05:45:33;52.42;;;23.15;;
68523;SDS011;55524;51.380;13.372;2024-03-02T05:48:28;51.80;;;23.85;;
68523;SDS011;55524;51.380;13.372;2024-03-02T05:50:54;76.03;;;31.05;;
68523;SDS011;55524;51.380;13.372;2024-03-02T05:53:41;58.90;;;25.80;;
68523;SDS011;55524;51.380;13.372;2024-03-02T05:56:27;52.55;;;23.75;;
68523;SDS011;55524;51.380;13.372;2024-03-02T05:58:54;50.45;;;23.00;;
68523;SDS011;55524;51.380;13.372;2024-03-02T06:01:37;49.33;;;22.33;;
68523;SDS011;55524;51.380;13.372;2024-03-02T06:04:08;56.60;;;22.73;;
68523;SDS011;55524;51.380;13.372;2024-03-02T06:06:38;49.70;;;21.33;;
68523;SDS011;55524;51.380;13.372;2024-03-02T06:09:07;49.08;;;22.15;;
68523;SDS011;55524;51.380;13.372;2024-03-02T06:11:34;50.20;;;21.73;;
68523;SDS011;55524;51.380;13.372;2024-03-02T06:14:04;54.42;;;24.88;;
68523;SDS011;55524;51.380;13.372;2024-03-02T06:16:39;48.95;;;22.98;;
68523;SDS011;55524;51.380;13.372;2024-03-02T06:19:11;49.70;;;21.67;;
68523;SDS011;55524;51.380;13.372;2024-03-02T06:21:38;56.90;;;22.45;;
68523;SDS011;55524;51.380;13.372;2024-03-02T06:24:05;53.58;;;22.05;;
68523;SDS011;55524;51.380;13.372;2024-03-02T06:26:40;48.55;;;22.35;;
68523;SDS011;55524;51.380;13.372;2024-03-02T06:29:09;49.78;;;21.70;;
68523;SDS011;55524;51.380;13.372;2024-03-02T06:31:56;49.15;;;20.95;;
68523;SDS011;55524;51.380;13.372;2024-03-02T06:34:45;49.97;;;21.38;;
68523;SDS011;55524;51.380;13.372;2024-03-02T06:37:12;53.45;;;22.30;;
68523;SDS011;55524;51.380;13.372;2024-03-02T06:39:41;46.63;;;20.35;;
68523;SDS011;55524;51.380;13.372;2024-03-02T06:42:11;47.85;;;21.55;;
68523;SDS011;55524;51.380;13.372;2024-03-02T06:44:40;51.45;;;21.73;;
68523;SDS011;55524;51.380;13.372;2024-03-02T06:47:06;46.78;;;20.10;;
68523;SDS011;55524;51.380;13.372;2024-03-02T06:49:58;47.58;;;21.05;;
68523;SDS011;55524;51.380;13.372;2024-03-02T06:52:25;52.53;;;21.73;;
68523;SDS011;55524;51.380;13.372;2024-03-02T06:54:51;47.08;;;20.80;;
68523;SDS011;55524;51.380;13.372;2024-03-02T06:57:18;42.20;;;21.50;;
68523;SDS011;55524;51.380;13.372;2024-03-02T07:00:04;45.10;;;20.55;;
68523;SDS011;55524;51.380;13.372;2024-03-02T07:02:40;49.42;;;21.20;;
68523;SDS011;55524;51.380;13.372;2024-03-02T07:05:12;48.28;;;21.30;;
68523;SDS011;55524;51.380;13.372;2024-03-02T07:07:39;45.65;;;20.92;;
68523;SDS011;55524;51.380;13.372;2024-03-02T07:10:05;44.35;;;19.77;;
68523;SDS011;55524;51.380;13.372;2024-03-02T07:12:49;45.95;;;19.77;;
68523;SDS011;55524;51.380;13.372;2024-03-02T07:15:16;49.55;;;20.08;;
68523;SDS011;55524;51.380;13.372;2024-03-02T07:18:26;46.60;;;19.52;;
68523;SDS011;55524;51.380;13.372;2024-03-02T07:20:52;46.83;;;20.02;;
68523;SDS011;55524;51.380;13.372;2024-03-02T07:23:51;42.97;;;19.27;;
68523;SDS011;55524;51.380;13.372;2024-03-02T07:26:19;44.75;;;19.65;;
68523;SDS011;55524;51.380;13.372;2024-03-02T07:28:48;41.38;;;19.27;;
68523;SDS011;55524;51.380;13.372;2024-03-02T07:31:23;42.22;;;19.67;;
68523;SDS011;55524;51.380;13.372;2024-03-02T07:33:50;44.47;;;19.17;;
68523;SDS011;55524;51.380;13.372;2024-03-02T07:36:16;44.60;;;20.30;;
68523;SDS011;55524;51.380;13.372;2024-03-02T07:38:44;47.90;;;19.05;;
68523;SDS011;55524;51.380;13.372;2024-03-02T07:41:10;48.78;;;20.15;;
68523;SDS011;55524;51.380;13.372;2024-03-02T07:43:37;38.33;;;18.60;;
68523;SDS011;55524;51.380;13.372;2024-03-02T07:46:04;42.45;;;19.05;;
68523;SDS011;55524;51.380;13.372;2024-03-02T07:48:31;40.38;;;19.50;;
68523;SDS011;55524;51.380;13.372;2024-03-02T07:50:57;45.20;;;19.48;;
68523;SDS011;55524;51.380;13.372;2024-03-02T07:53:24;43.80;;;19.00;;
68523;SDS011;55524;51.380;13.372;2024-03-02T07:55:50;42.67;;;19.73;;
68523;SDS011;55524;51.380;13.372;2024-03-02T07:58:16;40.65;;;17.60;;
68523;SDS011;55524;51.380;13.372;2024-03-02T08:01:03;43.78;;;18.27;;
68523;SDS011;55524;51.380;13.372;2024-03-02T08:03:35;44.33;;;19.35;;
68523;SDS011;55524;51.380;13.372;2024-03-02T08:06:02;41.55;;;18.63;;
68523;SDS011;55524;51.380;13.372;2024-03-02T08:08:29;40.45;;;18.30;;
68523;SDS011;55524;51.380;13.372;2024-03-02T08:10:55;43.58;;;20.25;;
68523;SDS011;55524;51.380;13.372;2024-03-02T08:13:27;40.90;;;18.15;;
68523;SDS011;55524;51.380;13.372;2024-03-02T08:15:53;44.22;;;19.95;;
68523;SDS011;55524;51.380;13.372;2024-03-02T08:18:23;41.40;;;19.02;;
68523;SDS011;55524;51.380;13.372;2024-03-02T08:20:50;43.67;;;17.88;;
68523;SDS011;55524;51.380;13.372;2024-03-02T08:23:17;42.60;;;18.50;;
68523;SDS011;55524;51.380;13.372;2024-03-02T08:25:43;37.58;;;18.63;;
68523;SDS011;55524;51.380;13.372;2024-03-02T08:28:15;34.38;;;17.15;;
68523;SDS011;55524;51.380;13.372;2024-03-02T08:30:45;44.92;;;17.80;;
68523;SDS011;55524;51.380;13.372;2024-03-02T08:33:11;40.65;;;19.10;;
68523;SDS011;55524;51.380;13.372;2024-03-02T08:35:37;39.92;;;19.48;;
68523;SDS011;55524;51.380;13.372;2024-03-02T08:38:03;38.65;;;17.08;;
68523;SDS011;55524;51.380;13.372;2024-03-02T08:40:30;38.78;;;19.00;;
68523;SDS011;55524;51.380;13.372;2024-03-02T08:42:59;47.50;;;18.13;;
68523;SDS011;55524;51.380;13.372;2024-03-02T08:45:26;41.67;;;18.65;;
68523;SDS011;55524;51.380;13.372;2024-03-02T08:47:56;39.42;;;17.92;;
68523;SDS011;55524;51.380;13.372;2024-03-02T08:50:22;39.20;;;18.27;;
68523;SDS011;55524;51.380;13.372;2024-03-02T08:52:48;39.58;;;17.75;;
68523;SDS011;55524;51.380;13.372;2024-03-02T08:55:15;38.72;;;17.63;;
68523;SDS011;55524;51.380;13.372;2024-03-02T08:57:41;39.40;;;18.02;;
68523;SDS011;55524;51.380;13.372;2024-03-02T09:00:07;41.53;;;18.45;;
68523;SDS011;55524;51.380;13.372;2024-03-02T09:02:54;39.70;;;19.02;;
68523;SDS011;55524;51.380;13.372;2024-03-02T09:05:21;43.42;;;17.98;;
68523;SDS011;55524;51.380;13.372;2024-03-02T09:08:08;42.38;;;17.63;;
68523;SDS011;55524;51.380;13.372;2024-03-02T09:10:43;37.10;;;18.17;;
68523;SDS011;55524;51.380;13.372;2024-03-02T09:13:30;41.00;;;18.35;;
68523;SDS011;55524;51.380;13.372;2024-03-02T09:16:14;40.55;;;18.00;;
68523;SDS011;55524;51.380;13.372;2024-03-02T09:19:03;39.20;;;17.75;;
68523;SDS011;55524;51.380;13.372;2024-03-02T09:21:30;34.08;;;18.65;;
68523;SDS011;55524;51.380;13.372;2024-03-02T09:23:57;39.45;;;18.70;;
68523;SDS011;55524;51.380;13.372;2024-03-02T09:26:23;41.78;;;20.23;;
68523;SDS011;55524;51.380;13.372;2024-03-02T09:28:50;44.38;;;20.40;;
68523;SDS011;55524;51.380;13.372;2024-03-02T09:31:28;43.65;;;21.48;;
68523;SDS011;55524;51.380;13.372;2024-03-02T09:33:54;43.80;;;21.55;;
68523;SDS011;55524;51.380;13.372;2024-03-02T09:36:21;45.53;;;21.05;;
68523;SDS011;55524;51.380;13.372;2024-03-02T09:38:48;47.40;;;22.17;;
68523;SDS011;55524;51.380;13.372;2024-03-02T09:41:17;44.03;;;21.13;;
68523;SDS011;55524;51.380;13.372;2024-03-02T09:43:46;54.47;;;21.77;;
68523;SDS011;55524;51.380;13.372;2024-03-02T09:46:13;55.85;;;22.40;;
68523;SDS011;55524;51.380;13.372;2024-03-02T09:48:46;46.97;;;21.63;;
68523;SDS011;55524;51.380;13.372;2024-03-02T09:51:12;52.58;;;20.20;;
68523;SDS011;55524;51.380;13.372;2024-03-02T09:56:23;45.70;;;19.27;;
68523;SDS011;55524;51.380;13.372;2024-03-02T09:59:12;42.65;;;20.73;;
68523;SDS011;55524;51.380;13.372;2024-03-02T10:02:00;48.17;;;21.50;;
68523;SDS011;55524;51.380;13.372;2024-03-02T10:04:33;41.25;;;19.83;;
68523;SDS011;55524;51.380;13.372;2024-03-02T10:09:54;36.33;;;18.65;;
68523;SDS011;55524;51.380;13.372;2024-03-02T10:12:20;36.90;;;18.83;;
68523;SDS011;55524;51.380;13.372;2024-03-02T10:14:47;35.95;;;17.65;;
68523;SDS011;55524;51.380;13.372;2024-03-02T10:17:30;32.63;;;16.60;;
68523;SDS011;55524;51.380;13.372;2024-03-02T10:20:04;37.45;;;17.38;;
68523;SDS011;55524;51.380;13.372;2024-03-02T10:23:10;35.67;;;18.17;;
68523;SDS011;55524;51.380;13.372;2024-03-02T10:25:41;40.17;;;18.65;;
68523;SDS011;55524;51.380;13.372;2024-03-02T10:28:14;38.40;;;18.45;;
68523;SDS011;55524;51.380;13.372;2024-03-02T10:30:41;36.97;;;18.83;;
68523;SDS011;55524;51.380;13.372;2024-03-02T10:33:17;39.75;;;18.90;;
68523;SDS011;55524;51.380;13.372;2024-03-02T10:35:49;36.88;;;18.65;;
68523;SDS011;55524;51.380;13.372;2024-03-02T10:38:26;31.73;;;17.00;;
68523;SDS011;55524;51.380;13.372;2024-03-02T10:40:52;34.92;;;16.63;;
68523;SDS011;55524;51.380;13.372;2024-03-02T10:43:20;32.13;;;16.40;;
68523;SDS011;55524;51.380;13.372;2024-03-02T10:45:50;31.15;;;16.13;;
68523;SDS011;55524;51.380;13.372;2024-03-02T10:48:18;29.95;;;15.57;;
68523;SDS011;55524;51.380;13.372;2024-03-02T10:51:04;24.40;;;14.13;;
68523;SDS011;55524;51.380;13.372;2024-03-02T10:53:30;50.55;;;17.50;;
68523;SDS011;55524;51.380;13.372;2024-03-02T10:56:21;32.30;;;16.50;;
68523;SDS011;55524;51.380;13.372;2024-03-02T11:02:01;31.10;;;15.60;;
68523;SDS011;55524;51.380;13.372;2024-03-02T11:04:33;26.70;;;15.45;;
68523;SDS011;55524;51.380;13.372;2024-03-02T11:07:05;64.93;;;16.58;;
68523;SDS011;55524;51.380;13.372;2024-03-02T11:10:01;82.45;;;19.73;;
68523;SDS011;55524;51.380;13.372;2024-03-02T11:12:53;31.70;;;16.45;;
68523;SDS011;55524;51.380;13.372;2024-03-02T11:15:31;31.15;;;15.18;;
68523;SDS011;55524;51.380;13.372;2024-03-02T11:18:00;33.63;;;15.05;;
68523;SDS011;55524;51.380;13.372;2024-03-02T11:20:31;45.20;;;15.60;;
68523;SDS011;55524;51.380;13.372;2024-03-02T11:23:08;27.50;;;14.07;;
68523;SDS011;55524;51.380;13.372;2024-03-02T11:25:40;25.52;;;14.27;;
68523;SDS011;55524;51.380;13.372;2024-03-02T11:28:16;27.58;;;14.07;;
68523;SDS011;55524;51.380;13.372;2024-03-02T11:31:18;28.33;;;15.05;;
68523;SDS011;55524;51.380;13.372;2024-03-02T11:37:12;21.27;;;11.68;;
68523;SDS011;55524;51.380;13.372;2024-03-02T11:42:10;22.33;;;12.75;;
68523;SDS011;55524;51.380;13.372;2024-03-02T11:44:41;25.15;;;13.68;;
68523;SDS011;55524;51.380;13.372;2024-03-02T11:47:10;22.65;;;11.85;;
68523;SDS011;55524;51.380;13.372;2024-03-02T11:49:44;24.45;;;12.73;;
68523;SDS011;55524;51.380;13.372;2024-03-02T11:52:20;22.48;;;11.82;;
68523;SDS011;55524;51.380;13.372;2024-03-02T11:55:08;22.45;;;11.63;;
68523;SDS011;55524;51.380;13.372;2024-03-02T11:57:39;22.13;;;12.30;;
68523;SDS011;55524;51.380;13.372;2024-03-02T12:00:06;22.85;;;11.32;;
68523;SDS011;55524;51.380;13.372;2024-03-02T12:02:43;36.40;;;17.10;;
68523;SDS011;55524;51.380;13.372;2024-03-02T12:05:15;22.23;;;11.50;;
68523;SDS011;55524;51.380;13.372;2024-03-02T12:07:42;29.63;;;14.50;;
68523;SDS011;55524;51.380;13.372;2024-03-02T12:10:21;29.35;;;14.95;;
68523;SDS011;55524;51.380;13.372;2024-03-02T12:12:47;19.95;;;10.60;;
68523;SDS011;55524;51.380;13.372;2024-03-02T12:15:36;16.92;;;11.02;;
68523;SDS011;55524;51.380;13.372;2024-03-02T12:18:13;15.25;;;8.90;;
68523;SDS011;55524;51.380;13.372;2024-03-02T12:21:08;52.92;;;10.30;;
68523;SDS011;55524;51.380;13.372;2024-03-02T12:23:38;16.15;;;8.80;;
68523;SDS011;55524;51.380;13.372;2024-03-02T12:26:07;17.40;;;8.65;;
68523;SDS011;55524;51.380;13.372;2024-03-02T12:28:41;25.02;;;9.30;;
68523;SDS011;55524;51.380;13.372;2024-03-02T12:31:08;18.00;;;7.38;;
68523;SDS011;55524;51.380;13.372;2024-03-02T12:33:34;14.40;;;8.10;;
68523;SDS011;55524;51.380;13.372;2024-03-02T12:36:00;15.77;;;7.90;;
68523;SDS011;55524;51.380;13.372;2024-03-02T12:38:30;16.20;;;7.60;;
68523;SDS011;55524;51.380;13.372;2024-03-02T12:41:02;23.40;;;8.20;;
68523;SDS011;55524;51.380;13.372;2024-03-02T12:43:30;15.00;;;7.43;;
68523;SDS011;55524;51.380;13.372;2024-03-02T12:46:06;15.38;;;7.32;;
68523;SDS011;55524;51.380;13.372;2024-03-02T12:48:35;11.50;;;7.38;;
68523;SDS011;55524;51.380;13.372;2024-03-02T12:51:11;16.55;;;8.18;;
68523;SDS011;55524;51.380;13.372;2024-03-02T12:53:43;10.48;;;6.40;;
68523;SDS011;55524;51.380;13.372;2024-03-02T12:56:13;13.68;;;7.40;;
68523;SDS011;55524;51.380;13.372;2024-03-02T12:58:40;12.60;;;7.15;;
68523;SDS011;55524;51.380;13.372;2024-03-02T13:01:07;13.32;;;7.05;;
68523;SDS011;55524;51.380;13.372;2024-03-02T13:03:39;11.85;;;7.15;;
68523;SDS011;55524;51.380;13.372;2024-03-02T13:06:16;12.73;;;6.75;;
68523;SDS011;55524;51.380;13.372;2024-03-02T13:08:43;15.82;;;7.55;;
68523;SDS011;55524;51.380;13.372;2024-03-02T13:11:11;14.55;;;7.25;;
68523;SDS011;55524;51.380;13.372;2024-03-02T13:14:04;12.68;;;7.38;;
68523;SDS011;55524;51.380;13.372;2024-03-02T13:16:40;14.15;;;7.38;;
68523;SDS011;55524;51.380;13.372;2024-03-02T13:19:12;13.70;;;7.47;;
68523;SDS011;55524;51.380;13.372;2024-03-02T13:21:39;15.43;;;7.15;;
68523;SDS011;55524;51.380;13.372;2024-03-02T13:24:08;13.65;;;7.85;;
68523;SDS011;55524;51.380;13.372;2024-03-02T13:26:46;12.95;;;7.45;;
68523;SDS011;55524;51.380;13.372;2024-03-02T13:29:32;14.30;;;7.22;;
68523;SDS011;55524;51.380;13.372;2024-03-02T13:31:59;13.60;;;7.68;;
68523;SDS011;55524;51.380;13.372;2024-03-02T13:34:25;13.15;;;7.88;;
68523;SDS011;55524;51.380;13.372;2024-03-02T13:36:54;13.77;;;7.97;;
68523;SDS011;55524;51.380;13.372;2024-03-02T13:39:21;11.90;;;7.28;;
68523;SDS011;55524;51.380;13.372;2024-03-02T13:41:57;11.57;;;7.22;;
68523;SDS011;55524;51.380;13.372;2024-03-02T13:44:30;11.05;;;7.22;;
68523;SDS011;55524;51.380;13.372;2024-03-02T13:47:06;16.88;;;7.30;;
68523;SDS011;55524;51.380;13.372;2024-03-02T13:49:42;13.77;;;7.28;;
68523;SDS011;55524;51.380;13.372;2024-03-02T13:52:20;14.73;;;7.70;;
68523;SDS011;55524;51.380;13.372;2024-03-02T13:54:47;14.02;;;7.03;;
68523;SDS011;55524;51.380;13.372;2024-03-02T13:57:14;14.55;;;7.53;;
68523;SDS011;55524;51.380;13.372;2024-03-02T13:59:55;12.02;;;6.80;;
68523;SDS011;55524;51.380;13.372;2024-03-02T14:02:22;12.20;;;7.80;;
68523;SDS011;55524;51.380;13.372;2024-03-02T14:04:48;10.75;;;7.18;;
68523;SDS011;55524;51.380;13.372;2024-03-02T14:07:18;14.05;;;7.45;;
68523;SDS011;55524;51.380;13.372;2024-03-02T14:10:04;13.60;;;7.18;;
68523;SDS011;55524;51.380;13.372;2024-03-02T14:12:34;21.65;;;7.93;;
68523;SDS011;55524;51.380;13.372;2024-03-02T14:15:21;19.40;;;7.40;;
68523;SDS011;55524;51.380;13.372;2024-03-02T14:17:48;14.07;;;7.75;;
68523;SDS011;55524;51.380;13.372;2024-03-02T14:20:20;15.85;;;7.53;;
68523;SDS011;55524;51.380;13.372;2024-03-02T14:22:48;14.45;;;8.15;;
68523;SDS011;55524;51.380;13.372;2024-03-02T14:25:17;18.23;;;8.00;;
68523;SDS011;55524;51.380;13.372;2024-03-02T14:27:57;20.77;;;7.72;;
68523;SDS011;55524;51.380;13.372;2024-03-02T14:30:27;13.60;;;8.05;;
68523;SDS011;55524;51.380;13.372;2024-03-02T14:32:53;20.00;;;9.02;;
68523;SDS011;55524;51.380;13.372;2024-03-02T14:35:20;17.80;;;8.40;;
68523;SDS011;55524;51.380;13.372;2024-03-02T14:38:07;15.82;;;8.65;;
68523;SDS011;55524;51.380;13.372;2024-03-02T14:40:36;21.08;;;10.13;;
68523;SDS011;55524;51.380;13.372;2024-03-02T14:43:11;18.50;;;9.55;;
68523;SDS011;55524;51.380;13.372;2024-03-02T14:45:50;25.48;;;10.48;;
68523;SDS011;55524;51.380;13.372;2024-03-02T14:48:37;19.55;;;11.02;;
68523;SDS011;55524;51.380;13.372;2024-03-02T14:51:23;23.63;;;10.85;;
68523;SDS011;55524;51.380;13.372;2024-03-02T14:53:55;22.58;;;11.07;;
68523;SDS011;55524;51.380;13.372;2024-03-02T14:56:28;22.85;;;10.77;;
68523;SDS011;55524;51.380;13.372;2024-03-02T14:59:14;26.85;;;11.10;;
68523;SDS011;55524;51.380;13.372;2024-03-02T15:01:46;22.83;;;11.55;;
68523;SDS011;55524;51.380;13.372;2024-03-02T15:04:32;23.75;;;10.93;;
68523;SDS011;55524;51.380;13.372;2024-03-02T15:07:10;25.67;;;11.15;;
68523;SDS011;55524;51.380;13.372;2024-03-02T15:09:36;19.73;;;10.75;;